sensor_id;sensor_type;location;lat;lon;timestamp;P1;durP1;ratioP1;P2;durP2;ratioP2
38117;SDS011;23928;47.562;7.508;2024-01-30T00:01:25;25.50;;;12.93;;
38117;SDS011;23928;47.562;7.508;2024-01-30T00:03:50;25.07;;;13.20;;
38117;SDS011;23928;47.562;7.508;2024-01-30T00:06:18;25.47;;;12.57;;
38117;SDS011;23928;47.562;7.508;2024-01-30T00:08:46;26.63;;;14.03;;
38117;SDS011;23928;47.562;7.508;2024-01-30T00:11:13;25.57;;;12.83;;
38117;SDS011;23928;47.562;7.508;2024-01-30T00:13:39;25.00;;;12.87;;
38117;SDS011;23928;47.562;7.508;2024-01-30T00:16:05;22.03;;;12.83;;
38117;SDS011;23928;47.562;7.508;2024-01-30T00:18:31;25.57;;;12.87;;
38117;SDS011;23928;47.562;7.508;2024-01-30T00:20:57;19.50;;;12.07;;
38117;SDS011;23928;47.562;7.508;2024-01-30T00:23:22;23.37;;;10.37;;
38117;SDS011;23928;47.562;7.508;2024-01-30T00:25:48;18.80;;;10.97;;
38117;SDS011;23928;47.562;7.508;2024-01-30T00:28:13;20.00;;;11.90;;
38117;SDS011;23928;47.562;7.508;2024-01-30T00:30:39;18.07;;;10.73;;
38117;SDS011;23928;47.562;7.508;2024-01-30T00:33:05;22.00;;;11.77;;
38117;SDS011;23928;47.562;7.508;2024-01-30T00:35:30;19.37;;;11.07;;
38117;SDS011;23928;47.562;7.508;2024-01-30T00:37:56;17.13;;;10.30;;
38117;SDS011;23928;47.562;7.508;2024-01-30T00:40:22;22.60;;;12.20;;
38117;SDS011;23928;47.562;7.508;2024-01-30T00:42:47;18.83;;;11.50;;
38117;SDS011;23928;47.562;7.508;2024-01-30T00:45:13;17.13;;;11.13;;
38117;SDS011;23928;47.562;7.508;2024-01-30T00:47:40;17.27;;;11.20;;
38117;SDS011;23928;47.562;7.508;2024-01-30T00:50:05;21.20;;;11.67;;
38117;SDS011;23928;47.562;7.508;2024-01-30T00:52:31;16.87;;;10.03;;
38117;SDS011;23928;47.562;7.508;2024-01-30T00:54:58;16.53;;;9.93;;
38117;SDS011;23928;47.562;7.508;2024-01-30T00:57:24;16.20;;;10.60;;
38117;SDS011;23928;47.562;7.508;2024-01-30T00:59:49;13.10;;;9.57;;
38117;SDS011;23928;47.562;7.508;2024-01-30T01:02:15;17.30;;;9.97;;
38117;SDS011;23928;47.562;7.508;2024-01-30T01:04:42;16.63;;;10.03;;
38117;SDS011;23928;47.562;7.508;2024-01-30T01:07:08;17.13;;;10.17;;
38117;SDS011;23928;47.562;7.508;2024-01-30T01:09:33;19.83;;;10.67;;
38117;SDS011;23928;47.562;7.508;2024-01-30T01:11:59;15.33;;;10.13;;
38117;SDS011;23928;47.562;7.508;2024-01-30T01:14:25;17.60;;;10.47;;
38117;SDS011;23928;47.562;7.508;2024-01-30T01:16:50;19.43;;;11.40;;
38117;SDS011;23928;47.562;7.508;2024-01-30T01:19:16;17.50;;;10.07;;
38117;SDS011;23928;47.562;7.508;2024-01-30T01:21:41;17.80;;;10.90;;
38117;SDS011;23928;47.562;7.508;2024-01-30T01:24:07;20.87;;;11.67;;
38117;SDS011;23928;47.562;7.508;2024-01-30T01:26:32;21.03;;;12.40;;
38117;SDS011;23928;47.562;7.508;2024-01-30T01:28:58;20.30;;;12.27;;
38117;SDS011;23928;47.562;7.508;2024-01-30T01:31:24;22.70;;;13.23;;
38117;SDS011;23928;47.562;7.508;2024-01-30T01:33:50;21.03;;;12.47;;
38117;SDS011;23928;47.562;7.508;2024-01-30T01:36:15;22.67;;;13.07;;
38117;SDS011;23928;47.562;7.508;2024-01-30T01:38:41;26.37;;;12.50;;
38117;SDS011;23928;47.562;7.508;2024-01-30T01:41:07;20.37;;;11.67;;
38117;SDS011;23928;47.562;7.508;2024-01-30T01:43:32;20.13;;;10.67;;
38117;SDS011;23928;47.562;7.508;2024-01-30T01:45:58;14.90;;;9.37;;
38117;SDS011;23928;47.562;7.508;2024-01-30T01:48:24;15.17;;;10.20;;
38117;SDS011;23928;47.562;7.508;2024-01-30T01:50:50;16.00;;;9.67;;
38117;SDS011;23928;47.562;7.508;2024-01-30T01:53:17;16.47;;;9.23;;
38117;SDS011;23928;47.562;7.508;2024-01-30T01:55:43;17.13;;;8.77;;
38117;SDS011;23928;47.562;7.508;2024-01-30T01:58:09;16.77;;;9.50;;
38117;SDS011;23928;47.562;7.508;2024-01-30T02:00:35;16.87;;;9.57;;
38117;SDS011;23928;47.562;7.508;2024-01-30T02:03:04;15.17;;;9.33;;
38117;SDS011;23928;47.562;7.508;2024-01-30T02:05:31;13.53;;;8.70;;
38117;SDS011;23928;47.562;7.508;2024-01-30T02:07:57;15.03;;;8.47;;
38117;SDS011;23928;47.562;7.508;2024-01-30T02:10:23;13.30;;;9.27;;
38117;SDS011;23928;47.562;7.508;2024-01-30T02:12:49;14.17;;;8.63;;
38117;SDS011;23928;47.562;7.508;2024-01-30T02:15:15;13.87;;;9.53;;
38117;SDS011;23928;47.562;7.508;2024-01-30T02:17:40;15.77;;;9.60;;
38117;SDS011;23928;47.562;7.508;2024-01-30T02:20:06;13.17;;;8.40;;
38117;SDS011;23928;47.562;7.508;2024-01-30T02:22:32;13.83;;;8.30;;
38117;SDS011;23928;47.562;7.508;2024-01-30T02:25:00;14.27;;;8.77;;
38117;SDS011;23928;47.562;7.508;2024-01-30T02:27:25;12.20;;;7.87;;
38117;SDS011;23928;47.562;7.508;2024-01-30T02:29:51;15.63;;;8.40;;
38117;SDS011;23928;47.562;7.508;2024-01-30T02:32:17;12.23;;;8.67;;
38117;SDS011;23928;47.562;7.508;2024-01-30T02:34:42;15.43;;;9.90;;
38117;SDS011;23928;47.562;7.508;2024-01-30T02:37:08;20.53;;;9.70;;
38117;SDS011;23928;47.562;7.508;2024-01-30T02:39:33;15.93;;;8.80;;
38117;SDS011;23928;47.562;7.508;2024-01-30T02:41:59;16.10;;;9.07;;
38117;SDS011;23928;47.562;7.508;2024-01-30T02:44:25;17.27;;;10.07;;
38117;SDS011;23928;47.562;7.508;2024-01-30T02:46:50;17.17;;;9.70;;
38117;SDS011;23928;47.562;7.508;2024-01-30T02:49:16;15.33;;;9.60;;
38117;SDS011;23928;47.562;7.508;2024-01-30T02:51:41;18.60;;;10.20;;
38117;SDS011;23928;47.562;7.508;2024-01-30T02:54:07;17.57;;;9.77;;
38117;SDS011;23928;47.562;7.508;2024-01-30T02:56:32;14.77;;;9.47;;
38117;SDS011;23928;47.562;7.508;2024-01-30T02:58:58;15.23;;;8.77;;
38117;SDS011;23928;47.562;7.508;2024-01-30T03:01:24;16.07;;;8.97;;
38117;SDS011;23928;47.562;7.508;2024-01-30T03:03:49;14.97;;;9.43;;
38117;SDS011;23928;47.562;7.508;2024-01-30T03:06:15;15.43;;;9.53;;
38117;SDS011;23928;47.562;7.508;2024-01-30T03:08:42;16.37;;;8.40;;
38117;SDS011;23928;47.562;7.508;2024-01-30T03:11:08;15.03;;;8.80;;
38117;SDS011;23928;47.562;7.508;2024-01-30T03:13:33;13.50;;;9.00;;
38117;SDS011;23928;47.562;7.508;2024-01-30T03:15:59;14.80;;;9.23;;
38117;SDS011;23928;47.562;7.508;2024-01-30T03:18:24;14.77;;;8.80;;
38117;SDS011;23928;47.562;7.508;2024-01-30T03:20:50;16.87;;;8.80;;
38117;SDS011;23928;47.562;7.508;2024-01-30T03:23:15;17.53;;;9.03;;
38117;SDS011;23928;47.562;7.508;2024-01-30T03:25:41;11.83;;;8.03;;
38117;SDS011;23928;47.562;7.508;2024-01-30T03:28:07;17.33;;;8.03;;
38117;SDS011;23928;47.562;7.508;2024-01-30T03:30:33;13.17;;;8.43;;
38117;SDS011;23928;47.562;7.508;2024-01-30T03:32:59;14.87;;;8.97;;
38117;SDS011;23928;47.562;7.508;2024-01-30T03:35:25;14.17;;;7.90;;
38117;SDS011;23928;47.562;7.508;2024-01-30T03:37:50;11.80;;;7.87;;
38117;SDS011;23928;47.562;7.508;2024-01-30T03:40:16;15.83;;;9.20;;
38117;SDS011;23928;47.562;7.508;2024-01-30T03:42:41;22.93;;;10.57;;
38117;SDS011;23928;47.562;7.508;2024-01-30T03:45:07;14.00;;;7.90;;
38117;SDS011;23928;47.562;7.508;2024-01-30T03:47:33;15.13;;;8.90;;
38117;SDS011;23928;47.562;7.508;2024-01-30T03:49:59;13.93;;;8.20;;
38117;SDS011;23928;47.562;7.508;2024-01-30T03:52:24;15.77;;;8.13;;
38117;SDS011;23928;47.562;7.508;2024-01-30T03:54:50;13.53;;;7.90;;
38117;SDS011;23928;47.562;7.508;2024-01-30T03:57:15;15.43;;;8.83;;
38117;SDS011;23928;47.562;7.508;2024-01-30T03:59:42;14.43;;;8.17;;
38117;SDS011;23928;47.562;7.508;2024-01-30T04:02:07;14.13;;;8.53;;
38117;SDS011;23928;47.562;7.508;2024-01-30T04:04:34;11.70;;;8.00;;
38117;SDS011;23928;47.562;7.508;2024-01-30T04:07:00;14.87;;;7.60;;
38117;SDS011;23928;47.562;7.508;2024-01-30T04:09:25;11.77;;;7.93;;
38117;SDS011;23928;47.562;7.508;2024-01-30T04:11:53;10.67;;;7.40;;
38117;SDS011;23928;47.562;7.508;2024-01-30T04:14:19;12.50;;;7.53;;
38117;SDS011;23928;47.562;7.508;2024-01-30T04:16:44;11.17;;;6.77;;
38117;SDS011;23928;47.562;7.508;2024-01-30T04:19:10;9.00;;;6.63;;
38117;SDS011;23928;47.562;7.508;2024-01-30T04:21:35;11.93;;;7.20;;
38117;SDS011;23928;47.562;7.508;2024-01-30T04:24:01;11.30;;;7.43;;
38117;SDS011;23928;47.562;7.508;2024-01-30T04:26:27;10.80;;;6.87;;
38117;SDS011;23928;47.562;7.508;2024-01-30T04:28:52;11.70;;;7.27;;
38117;SDS011;23928;47.562;7.508;2024-01-30T04:31:18;11.20;;;7.17;;
38117;SDS011;23928;47.562;7.508;2024-01-30T04:33:43;11.00;;;7.47;;
38117;SDS011;23928;47.562;7.508;2024-01-30T04:36:09;10.80;;;7.10;;
38117;SDS011;23928;47.562;7.508;2024-01-30T04:38:35;10.73;;;6.53;;
38117;SDS011;23928;47.562;7.508;2024-01-30T04:41:01;12.63;;;7.40;;
38117;SDS011;23928;47.562;7.508;2024-01-30T04:43:26;10.27;;;6.50;;
38117;SDS011;23928;47.562;7.508;2024-01-30T04:45:52;11.33;;;7.50;;
38117;SDS011;23928;47.562;7.508;2024-01-30T04:48:18;11.07;;;7.30;;
38117;SDS011;23928;47.562;7.508;2024-01-30T04:50:43;11.17;;;6.93;;
38117;SDS011;23928;47.562;7.508;2024-01-30T04:53:09;11.07;;;7.43;;
38117;SDS011;23928;47.562;7.508;2024-01-30T04:55:35;10.30;;;7.80;;
38117;SDS011;23928;47.562;7.508;2024-01-30T04:58:01;12.30;;;7.97;;
38117;SDS011;23928;47.562;7.508;2024-01-30T05:00:27;12.97;;;7.27;;
38117;SDS011;23928;47.562;7.508;2024-01-30T05:02:52;12.97;;;7.90;;
38117;SDS011;23928;47.562;7.508;2024-01-30T05:05:19;18.87;;;9.27;;
38117;SDS011;23928;47.562;7.508;2024-01-30T05:07:46;15.60;;;8.43;;
38117;SDS011;23928;47.562;7.508;2024-01-30T05:10:12;12.53;;;7.73;;
38117;SDS011;23928;47.562;7.508;2024-01-30T05:12:38;12.50;;;7.83;;
38117;SDS011;23928;47.562;7.508;2024-01-30T05:15:04;10.77;;;7.10;;
38117;SDS011;23928;47.562;7.508;2024-01-30T05:17:30;11.43;;;7.57;;
38117;SDS011;23928;47.562;7.508;2024-01-30T05:19:56;10.20;;;6.73;;
38117;SDS011;23928;47.562;7.508;2024-01-30T05:22:21;11.93;;;6.90;;
38117;SDS011;23928;47.562;7.508;2024-01-30T05:24:47;9.97;;;6.90;;
38117;SDS011;23928;47.562;7.508;2024-01-30T05:27:12;10.40;;;7.07;;
38117;SDS011;23928;47.562;7.508;2024-01-30T05:29:41;10.17;;;6.90;;
38117;SDS011;23928;47.562;7.508;2024-01-30T05:32:07;9.53;;;7.00;;
38117;SDS011;23928;47.562;7.508;2024-01-30T05:34:32;12.33;;;7.80;;
38117;SDS011;23928;47.562;7.508;2024-01-30T05:36:58;10.70;;;7.40;;
38117;SDS011;23928;47.562;7.508;2024-01-30T05:39:23;10.53;;;7.50;;
38117;SDS011;23928;47.562;7.508;2024-01-30T05:41:49;14.17;;;8.00;;
38117;SDS011;23928;47.562;7.508;2024-01-30T05:44:15;13.30;;;9.23;;
38117;SDS011;23928;47.562;7.508;2024-01-30T05:46:40;14.20;;;8.47;;
38117;SDS011;23928;47.562;7.508;2024-01-30T05:49:06;11.37;;;7.80;;
38117;SDS011;23928;47.562;7.508;2024-01-30T05:51:31;14.37;;;7.77;;
38117;SDS011;23928;47.562;7.508;2024-01-30T05:53:57;14.77;;;8.37;;
38117;SDS011;23928;47.562;7.508;2024-01-30T05:56:22;15.93;;;8.67;;
38117;SDS011;23928;47.562;7.508;2024-01-30T05:58:48;12.17;;;7.90;;
38117;SDS011;23928;47.562;7.508;2024-01-30T06:01:15;13.40;;;8.10;;
38117;SDS011;23928;47.562;7.508;2024-01-30T06:03:41;15.97;;;8.33;;
38117;SDS011;23928;47.562;7.508;2024-01-30T06:06:08;19.23;;;8.57;;
38117;SDS011;23928;47.562;7.508;2024-01-30T06:08:34;14.67;;;7.90;;
38117;SDS011;23928;47.562;7.508;2024-01-30T06:10:59;12.60;;;7.90;;
38117;SDS011;23928;47.562;7.508;2024-01-30T06:13:25;16.47;;;7.80;;
38117;SDS011;23928;47.562;7.508;2024-01-30T06:15:51;13.40;;;8.03;;
38117;SDS011;23928;47.562;7.508;2024-01-30T06:18:17;11.17;;;7.50;;
38117;SDS011;23928;47.562;7.508;2024-01-30T06:20:43;11.57;;;7.50;;
38117;SDS011;23928;47.562;7.508;2024-01-30T06:23:09;13.60;;;7.20;;
38117;SDS011;23928;47.562;7.508;2024-01-30T06:25:35;13.53;;;8.50;;
38117;SDS011;23928;47.562;7.508;2024-01-30T06:28:00;18.20;;;9.13;;
38117;SDS011;23928;47.562;7.508;2024-01-30T06:30:26;18.03;;;9.43;;
38117;SDS011;23928;47.562;7.508;2024-01-30T06:32:51;16.63;;;9.10;;
38117;SDS011;23928;47.562;7.508;2024-01-30T06:35:17;17.10;;;8.97;;
38117;SDS011;23928;47.562;7.508;2024-01-30T06:37:43;13.63;;;8.47;;
38117;SDS011;23928;47.562;7.508;2024-01-30T06:40:09;14.30;;;8.00;;
38117;SDS011;23928;47.562;7.508;2024-01-30T06:42:35;14.27;;;7.93;;
38117;SDS011;23928;47.562;7.508;2024-01-30T06:45:00;14.37;;;8.43;;
38117;SDS011;23928;47.562;7.508;2024-01-30T06:47:26;18.90;;;9.47;;
38117;SDS011;23928;47.562;7.508;2024-01-30T06:49:52;18.27;;;10.20;;
38117;SDS011;23928;47.562;7.508;2024-01-30T06:52:17;11.57;;;7.03;;
38117;SDS011;23928;47.562;7.508;2024-01-30T06:54:43;16.27;;;8.23;;
38117;SDS011;23928;47.562;7.508;2024-01-30T06:57:08;12.70;;;8.33;;
38117;SDS011;23928;47.562;7.508;2024-01-30T06:59:36;16.20;;;8.80;;
38117;SDS011;23928;47.562;7.508;2024-01-30T07:02:06;13.80;;;8.77;;
38117;SDS011;23928;47.562;7.508;2024-01-30T07:04:32;14.40;;;8.37;;
38117;SDS011;23928;47.562;7.508;2024-01-30T07:06:58;11.90;;;7.87;;
38117;SDS011;23928;47.562;7.508;2024-01-30T07:09:23;16.13;;;8.60;;
38117;SDS011;23928;47.562;7.508;2024-01-30T07:11:49;13.13;;;8.00;;
38117;SDS011;23928;47.562;7.508;2024-01-30T07:14:15;12.00;;;7.53;;
38117;SDS011;23928;47.562;7.508;2024-01-30T07:16:40;26.23;;;15.63;;
38117;SDS011;23928;47.562;7.508;2024-01-30T07:19:06;15.00;;;9.10;;
38117;SDS011;23928;47.562;7.508;2024-01-30T07:21:34;18.57;;;10.27;;
38117;SDS011;23928;47.562;7.508;2024-01-30T07:23:59;20.40;;;12.43;;
38117;SDS011;23928;47.562;7.508;2024-01-30T07:26:25;17.53;;;11.23;;
38117;SDS011;23928;47.562;7.508;2024-01-30T07:28:51;15.20;;;9.00;;
38117;SDS011;23928;47.562;7.508;2024-01-30T07:31:16;16.70;;;8.97;;
38117;SDS011;23928;47.562;7.508;2024-01-30T07:33:45;13.60;;;7.93;;
38117;SDS011;23928;47.562;7.508;2024-01-30T07:36:11;13.07;;;8.37;;
38117;SDS011;23928;47.562;7.508;2024-01-30T07:38:36;15.10;;;8.30;;
38117;SDS011;23928;47.562;7.508;2024-01-30T07:41:02;19.13;;;11.47;;
38117;SDS011;23928;47.562;7.508;2024-01-30T07:43:28;14.70;;;9.70;;
38117;SDS011;23928;47.562;7.508;2024-01-30T07:45:53;13.63;;;10.00;;
38117;SDS011;23928;47.562;7.508;2024-01-30T07:48:19;14.50;;;9.57;;
38117;SDS011;23928;47.562;7.508;2024-01-30T07:50:44;16.67;;;10.03;;
38117;SDS011;23928;47.562;7.508;2024-01-30T07:53:10;15.67;;;10.20;;
38117;SDS011;23928;47.562;7.508;2024-01-30T07:55:36;15.50;;;9.83;;
38117;SDS011;23928;47.562;7.508;2024-01-30T07:58:01;20.23;;;11.03;;
38117;SDS011;23928;47.562;7.508;2024-01-30T08:00:28;18.80;;;11.40;;
38117;SDS011;23928;47.562;7.508;2024-01-30T08:02:54;18.33;;;11.00;;
38117;SDS011;23928;47.562;7.508;2024-01-30T08:05:20;20.77;;;13.07;;
38117;SDS011;23928;47.562;7.508;2024-01-30T08:07:47;23.30;;;13.20;;
38117;SDS011;23928;47.562;7.508;2024-01-30T08:10:14;21.73;;;12.93;;
38117;SDS011;23928;47.562;7.508;2024-01-30T08:12:40;22.20;;;12.30;;
38117;SDS011;23928;47.562;7.508;2024-01-30T08:15:06;17.43;;;11.53;;
38117;SDS011;23928;47.562;7.508;2024-01-30T08:17:32;21.53;;;13.07;;
38117;SDS011;23928;47.562;7.508;2024-01-30T08:19:58;21.00;;;14.37;;
38117;SDS011;23928;47.562;7.508;2024-01-30T08:22:23;21.27;;;14.07;;
38117;SDS011;23928;47.562;7.508;2024-01-30T08:24:49;25.27;;;18.23;;
38117;SDS011;23928;47.562;7.508;2024-01-30T08:27:15;25.00;;;16.67;;
38117;SDS011;23928;47.562;7.508;2024-01-30T08:29:40;28.17;;;16.20;;
38117;SDS011;23928;47.562;7.508;2024-01-30T08:32:06;20.17;;;13.77;;
38117;SDS011;23928;47.562;7.508;2024-01-30T08:34:32;18.53;;;11.67;;
38117;SDS011;23928;47.562;7.508;2024-01-30T08:36:57;30.17;;;17.10;;
38117;SDS011;23928;47.562;7.508;2024-01-30T08:39:23;22.20;;;13.33;;
38117;SDS011;23928;47.562;7.508;2024-01-30T08:41:49;15.03;;;10.20;;
38117;SDS011;23928;47.562;7.508;2024-01-30T08:44:14;21.17;;;13.13;;
38117;SDS011;23928;47.562;7.508;2024-01-30T08:46:40;22.93;;;13.63;;
38117;SDS011;23928;47.562;7.508;2024-01-30T08:49:06;19.40;;;11.93;;
38117;SDS011;23928;47.562;7.508;2024-01-30T08:51:31;17.80;;;11.13;;
38117;SDS011;23928;47.562;7.508;2024-01-30T08:53:57;15.83;;;10.47;;
38117;SDS011;23928;47.562;7.508;2024-01-30T08:56:22;16.50;;;10.60;;
38117;SDS011;23928;47.562;7.508;2024-01-30T08:58:48;15.40;;;10.10;;
38117;SDS011;23928;47.562;7.508;2024-01-30T09:01:14;16.73;;;10.57;;
38117;SDS011;23928;47.562;7.508;2024-01-30T09:03:39;14.40;;;10.33;;
38117;SDS011;23928;47.562;7.508;2024-01-30T09:06:09;17.37;;;10.47;;
38117;SDS011;23928;47.562;7.508;2024-01-30T09:08:35;18.83;;;10.83;;
38117;SDS011;23928;47.562;7.508;2024-01-30T09:11:01;18.93;;;10.90;;
38117;SDS011;23928;47.562;7.508;2024-01-30T09:13:33;23.47;;;12.23;;
38117;SDS011;23928;47.562;7.508;2024-01-30T09:15:58;18.17;;;10.23;;
38117;SDS011;23928;47.562;7.508;2024-01-30T09:18:24;19.30;;;12.40;;
38117;SDS011;23928;47.562;7.508;2024-01-30T09:20:49;19.97;;;12.20;;
38117;SDS011;23928;47.562;7.508;2024-01-30T09:23:15;17.10;;;10.77;;
38117;SDS011;23928;47.562;7.508;2024-01-30T09:25:42;16.77;;;10.50;;
38117;SDS011;23928;47.562;7.508;2024-01-30T09:28:07;19.30;;;11.03;;
38117;SDS011;23928;47.562;7.508;2024-01-30T09:30:33;20.23;;;10.73;;
38117;SDS011;23928;47.562;7.508;2024-01-30T09:32:59;19.63;;;11.20;;
38117;SDS011;23928;47.562;7.508;2024-01-30T09:35:25;18.17;;;11.30;;
38117;SDS011;23928;47.562;7.508;2024-01-30T09:37:51;19.17;;;10.97;;
38117;SDS011;23928;47.562;7.508;2024-01-30T09:40:17;18.33;;;10.67;;
38117;SDS011;23928;47.562;7.508;2024-01-30T09:42:44;19.03;;;11.10;;
38117;SDS011;23928;47.562;7.508;2024-01-30T09:45:12;60.67;;;25.87;;
38117;SDS011;23928;47.562;7.508;2024-01-30T09:47:42;18.57;;;11.77;;
38117;SDS011;23928;47.562;7.508;2024-01-30T09:50:09;18.73;;;11.63;;
38117;SDS011;23928;47.562;7.508;2024-01-30T09:52:36;17.47;;;10.23;;
38117;SDS011;23928;47.562;7.508;2024-01-30T09:55:03;16.80;;;10.70;;
38117;SDS011;23928;47.562;7.508;2024-01-30T09:57:29;15.90;;;10.33;;
38117;SDS011;23928;47.562;7.508;2024-01-30T09:59:55;16.30;;;9.90;;
38117;SDS011;23928;47.562;7.508;2024-01-30T10:02:21;17.20;;;10.83;;
38117;SDS011;23928;47.562;7.508;2024-01-30T10:04:50;17.17;;;10.97;;
38117;SDS011;23928;47.562;7.508;2024-01-30T10:07:17;17.00;;;10.13;;
38117;SDS011;23928;47.562;7.508;2024-01-30T10:09:43;16.40;;;10.73;;
38117;SDS011;23928;47.562;7.508;2024-01-30T10:12:09;17.70;;;10.73;;
38117;SDS011;23928;47.562;7.508;2024-01-30T10:14:41;14.93;;;9.83;;
38117;SDS011;23928;47.562;7.508;2024-01-30T10:17:08;16.13;;;10.60;;
38117;SDS011;23928;47.562;7.508;2024-01-30T10:19:35;16.57;;;10.53;;
38117;SDS011;23928;47.562;7.508;2024-01-30T10:22:01;19.30;;;11.37;;
38117;SDS011;23928;47.562;7.508;2024-01-30T10:24:27;24.07;;;13.83;;
38117;SDS011;23928;47.562;7.508;2024-01-30T10:26:54;25.23;;;14.50;;
38117;SDS011;23928;47.562;7.508;2024-01-30T10:29:20;23.77;;;14.03;;
38117;SDS011;23928;47.562;7.508;2024-01-30T10:31:56;25.97;;;13.80;;
38117;SDS011;23928;47.562;7.508;2024-01-30T10:34:32;23.70;;;14.83;;
38117;SDS011;23928;47.562;7.508;2024-01-30T10:37:07;24.63;;;15.60;;
38117;SDS011;23928;47.562;7.508;2024-01-30T10:39:41;22.00;;;14.47;;
38117;SDS011;23928;47.562;7.508;2024-01-30T10:42:11;26.50;;;14.43;;
38117;SDS011;23928;47.562;7.508;2024-01-30T10:47:21;28.30;;;16.07;;
38117;SDS011;23928;47.562;7.508;2024-01-30T10:49:54;26.03;;;13.70;;
38117;SDS011;23928;47.562;7.508;2024-01-30T10:52:20;24.83;;;14.37;;
38117;SDS011;23928;47.562;7.508;2024-01-30T10:54:51;22.53;;;14.47;;
38117;SDS011;23928;47.562;7.508;2024-01-30T10:57:17;23.87;;;13.47;;
38117;SDS011;23928;47.562;7.508;2024-01-30T10:59:43;25.10;;;12.93;;
38117;SDS011;23928;47.562;7.508;2024-01-30T11:02:10;17.70;;;12.60;;
38117;SDS011;23928;47.562;7.508;2024-01-30T11:04:45;20.33;;;12.23;;
38117;SDS011;23928;47.562;7.508;2024-01-30T11:07:18;18.50;;;11.67;;
38117;SDS011;23928;47.562;7.508;2024-01-30T11:09:59;18.20;;;10.93;;
38117;SDS011;23928;47.562;7.508;2024-01-30T11:12:27;16.80;;;10.07;;
38117;SDS011;23928;47.562;7.508;2024-01-30T11:15:02;16.83;;;10.13;;
38117;SDS011;23928;47.562;7.508;2024-01-30T11:22:51;16.23;;;9.97;;
38117;SDS011;23928;47.562;7.508;2024-01-30T11:25:19;17.43;;;10.03;;
38117;SDS011;23928;47.562;7.508;2024-01-30T11:27:46;20.13;;;10.00;;
38117;SDS011;23928;47.562;7.508;2024-01-30T11:30:21;17.73;;;10.03;;
38117;SDS011;23928;47.562;7.508;2024-01-30T11:35:34;12.97;;;8.43;;
38117;SDS011;23928;47.562;7.508;2024-01-30T11:38:01;14.67;;;9.10;;
38117;SDS011;23928;47.562;7.508;2024-01-30T11:40:28;16.17;;;9.93;;
38117;SDS011;23928;47.562;7.508;2024-01-30T11:42:55;14.63;;;10.27;;
38117;SDS011;23928;47.562;7.508;2024-01-30T11:45:21;18.70;;;11.70;;
38117;SDS011;23928;47.562;7.508;2024-01-30T11:47:47;20.10;;;11.10;;
38117;SDS011;23928;47.562;7.508;2024-01-30T11:50:13;15.80;;;10.53;;
38117;SDS011;23928;47.562;7.508;2024-01-30T11:52:39;15.00;;;10.30;;
38117;SDS011;23928;47.562;7.508;2024-01-30T11:55:05;14.23;;;10.33;;
38117;SDS011;23928;47.562;7.508;2024-01-30T11:57:33;17.20;;;10.80;;
38117;SDS011;23928;47.562;7.508;2024-01-30T12:00:00;16.30;;;10.27;;
38117;SDS011;23928;47.562;7.508;2024-01-30T12:02:26;15.80;;;10.03;;
38117;SDS011;23928;47.562;7.508;2024-01-30T12:04:52;12.73;;;9.80;;
38117;SDS011;23928;47.562;7.508;2024-01-30T12:07:17;11.97;;;9.13;;
38117;SDS011;23928;47.562;7.508;2024-01-30T12:09:51;15.60;;;9.53;;
38117;SDS011;23928;47.562;7.508;2024-01-30T12:12:18;13.13;;;9.03;;
38117;SDS011;23928;47.562;7.508;2024-01-30T12:14:43;14.03;;;9.13;;
38117;SDS011;23928;47.562;7.508;2024-01-30T12:17:09;12.63;;;9.33;;
38117;SDS011;23928;47.562;7.508;2024-01-30T12:19:36;14.90;;;9.60;;
38117;SDS011;23928;47.562;7.508;2024-01-30T12:22:01;15.57;;;9.60;;
38117;SDS011;23928;47.562;7.508;2024-01-30T12:24:28;15.50;;;10.13;;
38117;SDS011;23928;47.562;7.508;2024-01-30T12:26:58;13.80;;;9.10;;
38117;SDS011;23928;47.562;7.508;2024-01-30T12:29:24;13.03;;;8.90;;
38117;SDS011;23928;47.562;7.508;2024-01-30T12:31:52;13.73;;;9.50;;
38117;SDS011;23928;47.562;7.508;2024-01-30T12:34:18;13.27;;;8.80;;
38117;SDS011;23928;47.562;7.508;2024-01-30T12:36:46;14.07;;;10.27;;
38117;SDS011;23928;47.562;7.508;2024-01-30T12:39:13;15.90;;;10.00;;
38117;SDS011;23928;47.562;7.508;2024-01-30T12:41:40;16.83;;;11.47;;
38117;SDS011;23928;47.562;7.508;2024-01-30T12:44:05;13.00;;;8.87;;
38117;SDS011;23928;47.562;7.508;2024-01-30T12:46:32;11.33;;;7.67;;
38117;SDS011;23928;47.562;7.508;2024-01-30T12:48:59;13.37;;;8.20;;
38117;SDS011;23928;47.562;7.508;2024-01-30T12:51:25;12.40;;;7.87;;
38117;SDS011;23928;47.562;7.508;2024-01-30T12:53:51;10.37;;;7.63;;
38117;SDS011;23928;47.562;7.508;2024-01-30T12:56:16;10.40;;;6.90;;
38117;SDS011;23928;47.562;7.508;2024-01-30T12:58:42;12.23;;;7.93;;
38117;SDS011;23928;47.562;7.508;2024-01-30T13:01:08;11.27;;;6.97;;
38117;SDS011;23928;47.562;7.508;2024-01-30T13:03:34;10.53;;;7.50;;
38117;SDS011;23928;47.562;7.508;2024-01-30T13:06:00;9.37;;;6.90;;
38117;SDS011;23928;47.562;7.508;2024-01-30T13:08:25;11.03;;;7.10;;
38117;SDS011;23928;47.562;7.508;2024-01-30T13:10:51;12.37;;;7.10;;
38117;SDS011;23928;47.562;7.508;2024-01-30T13:13:16;12.93;;;7.47;;
38117;SDS011;23928;47.562;7.508;2024-01-30T13:15:42;10.13;;;7.10;;
38117;SDS011;23928;47.562;7.508;2024-01-30T13:18:08;9.37;;;6.90;;
38117;SDS011;23928;47.562;7.508;2024-01-30T13:20:33;12.90;;;8.00;;
38117;SDS011;23928;47.562;7.508;2024-01-30T13:22:59;10.93;;;7.63;;
38117;SDS011;23928;47.562;7.508;2024-01-30T13:25:24;13.10;;;8.13;;
38117;SDS011;23928;47.562;7.508;2024-01-30T13:27:50;12.27;;;9.30;;
38117;SDS011;23928;47.562;7.508;2024-01-30T13:30:16;11.10;;;8.77;;
38117;SDS011;23928;47.562;7.508;2024-01-30T13:32:41;13.40;;;8.97;;
38117;SDS011;23928;47.562;7.508;2024-01-30T13:35:09;13.07;;;8.73;;
38117;SDS011;23928;47.562;7.508;2024-01-30T13:37:35;23.23;;;11.33;;
38117;SDS011;23928;47.562;7.508;2024-01-30T13:40:01;14.80;;;9.93;;
38117;SDS011;23928;47.562;7.508;2024-01-30T13:42:32;16.70;;;10.23;;
38117;SDS011;23928;47.562;7.508;2024-01-30T13:44:57;14.90;;;10.53;;
38117;SDS011;23928;47.562;7.508;2024-01-30T13:47:23;17.40;;;11.77;;
38117;SDS011;23928;47.562;7.508;2024-01-30T13:49:50;17.77;;;12.00;;
38117;SDS011;23928;47.562;7.508;2024-01-30T13:52:17;18.10;;;10.37;;
38117;SDS011;23928;47.562;7.508;2024-01-30T13:54:43;17.03;;;9.67;;
38117;SDS011;23928;47.562;7.508;2024-01-30T13:57:08;16.67;;;10.43;;
38117;SDS011;23928;47.562;7.508;2024-01-30T13:59:34;15.30;;;9.97;;
38117;SDS011;23928;47.562;7.508;2024-01-30T14:02:00;12.00;;;9.03;;
38117;SDS011;23928;47.562;7.508;2024-01-30T14:04:25;15.27;;;9.27;;
38117;SDS011;23928;47.562;7.508;2024-01-30T14:06:51;13.43;;;8.17;;
38117;SDS011;23928;47.562;7.508;2024-01-30T14:09:17;16.77;;;9.60;;
38117;SDS011;23928;47.562;7.508;2024-01-30T14:11:42;17.40;;;8.77;;
38117;SDS011;23928;47.562;7.508;2024-01-30T14:14:08;13.87;;;9.20;;
38117;SDS011;23928;47.562;7.508;2024-01-30T14:16:34;17.53;;;8.93;;
38117;SDS011;23928;47.562;7.508;2024-01-30T14:19:00;12.67;;;9.00;;
38117;SDS011;23928;47.562;7.508;2024-01-30T14:21:26;11.80;;;7.83;;
38117;SDS011;23928;47.562;7.508;2024-01-30T14:23:51;12.83;;;8.30;;
38117;SDS011;23928;47.562;7.508;2024-01-30T14:26:17;10.80;;;7.27;;
38117;SDS011;23928;47.562;7.508;2024-01-30T14:28:43;12.03;;;8.10;;
38117;SDS011;23928;47.562;7.508;2024-01-30T14:31:08;10.87;;;7.90;;
38117;SDS011;23928;47.562;7.508;2024-01-30T14:33:34;12.27;;;6.80;;